Time;durP1;ratioP1;P1;durP2;ratioP2;P2;SDS_P1;SDS_P2;PMS_P1;PMS_P2;Temp;Humidity;BMP_temperature;BMP_pressure;BME280_temperature;BME280_humidity;BME280_pressure;Samples;Min_cycle;Max_cycle;Signal;HPM_P1;HPM_P2
2023/04/10 00:01:22;;;;;;;9.95;7.47;;;3.10;79.00;;;;;;5094308;28;20185;-70
2023/04/10 00:03:50;;;;;;;13.35;7.00;;;3.00;78.00;;;;;;5094734;28;20276;-70
2023/04/10 00:06:23;;;;;;;9.43;7.10;;;2.90;78.10;;;;;;5094195;28;20212;-72
2023/04/10 00:08:51;;;;;;;9.23;6.55;;;2.80;79.10;;;;;;5094899;28;20247;-70
2023/04/10 00:11:18;;;;;;;9.32;6.95;;;2.70;80.60;;;;;;5094353;28;20311;-70
2023/04/10 00:13:45;;;;;;;11.85;7.10;;;2.70;81.60;;;;;;5094152;28;20238;-70
2023/04/10 00:16:14;;;;;;;14.30;8.90;;;2.70;81.60;;;;;;5093964;28;20234;-71
2023/04/10 00:18:41;;;;;;;14.43;9.05;;;2.70;82.60;;;;;;5094161;28;20192;-71
2023/04/10 00:21:13;;;;;;;14.32;10.05;;;2.60;83.60;;;;;;5094406;28;20239;-70
2023/04/10 00:23:41;;;;;;;15.05;9.73;;;2.60;84.30;;;;;;5094199;28;20195;-70
2023/04/10 00:26:09;;;;;;;17.17;10.35;;;;;;;;;;5093557;28;20186;-70
2023/04/10 00:28:40;;;;;;;15.57;9.35;;;2.50;85.20;;;;;;5093674;28;20197;-70
2023/04/10 00:31:08;;;;;;;17.38;9.00;;;2.50;86.30;;;;;;5093981;28;20228;-70
2023/04/10 00:33:37;;;;;;;18.30;10.35;;;2.50;87.00;;;;;;5093675;28;20193;-70
2023/04/10 00:36:07;;;;;;;17.25;10.18;;;2.50;87.00;;;;;;5093935;28;20188;-70
2023/04/10 00:38:35;;;;;;;12.43;8.05;;;2.50;87.00;;;;;;5093587;28;20666;-70
2023/04/10 00:41:02;;;;;;;16.70;10.30;;;2.50;86.50;;;;;;5093984;28;20198;-70
2023/04/10 00:43:32;;;;;;;12.52;8.48;;;2.40;86.80;;;;;;5093868;28;20192;-72
2023/04/10 00:45:59;;;;;;;15.35;8.73;;;2.40;86.80;;;;;;5093859;28;20185;-70
2023/04/10 00:48:27;;;;;;;15.18;9.35;;;2.40;86.60;;;;;;5093557;28;20184;-70
2023/04/10 00:50:56;;;;;;;15.13;9.20;;;2.40;86.40;;;;;;5093574;28;20189;-70
2023/04/10 00:53:29;;;;;;;12.13;7.53;;;2.40;86.10;;;;;;5093496;28;20196;-70
2023/04/10 00:56:02;;;;;;;17.25;9.68;;;2.40;86.10;;;;;;5094047;28;20193;-71
2023/04/10 00:58:29;;;;;;;13.38;8.63;;;2.40;85.90;;;;;;5093606;28;20184;-70
2023/04/10 01:01:02;;;;;;;11.35;8.13;;;2.40;86.20;;;;;;5093049;28;20217;-74
2023/04/10 01:03:30;;;;;;;12.68;7.38;;;2.40;86.50;;;;;;5093837;28;20228;-70
2023/04/10 01:06:05;;;;;;;14.82;9.38;;;2.40;85.90;;;;;;5093189;28;20249;-70
2023/04/10 01:08:45;;;;;;;14.55;9.50;;;2.30;85.70;;;;;;5073252;28;20177;-70
2023/04/10 01:11:24;;;;;;;15.45;9.32;;;2.30;85.80;;;;;;5089299;28;20185;-70
2023/04/10 01:14:01;;;;;;;15.68;9.38;;;2.30;85.10;;;;;;5093136;28;20189;-70
2023/04/10 01:16:35;;;;;;;12.93;9.05;;;2.20;85.40;;;;;;5093265;28;20639;-70
2023/04/10 01:19:15;;;;;;;10.52;8.02;;;2.10;85.10;;;;;;5093029;28;20241;-70
2023/04/10 01:21:44;;;;;;;12.90;9.10;;;;;;;;;;5073039;28;20217;-70
2023/04/10 01:24:24;;;;;;;14.95;8.25;;;2.10;85.20;;;;;;5079384;28;20636;-70
2023/04/10 01:27:02;;;;;;;12.45;7.88;;;2.00;85.90;;;;;;5092928;28;20192;-70
2023/04/10 01:29:34;;;;;;;11.10;6.57;;;2.00;86.40;;;;;;5092710;28;20230;-70
2023/04/10 01:32:12;;;;;;;11.05;7.70;;;2.00;86.60;;;;;;5093214;28;20215;-73
2023/04/10 01:34:43;;;;;;;13.30;8.23;;;1.90;86.90;;;;;;5092804;28;20192;-70
2023/04/10 01:37:20;;;;;;;12.15;8.00;;;1.90;88.00;;;;;;5093072;28;20188;-70
2023/04/10 01:39:51;;;;;;;11.65;7.68;;;1.90;88.60;;;;;;5092925;28;20223;-70
2023/04/10 01:42:20;;;;;;;12.23;7.57;;;1.90;89.20;;;;;;5092943;28;20197;-70
2023/04/10 01:44:50;;;;;;;11.27;8.23;;;1.90;89.40;;;;;;5092209;28;20245;-70
2023/04/10 01:47:18;;;;;;;12.90;7.47;;;1.90;88.60;;;;;;5092412;28;20211;-70
2023/04/10 01:49:48;;;;;;;10.75;7.47;;;1.90;88.30;;;;;;5091810;28;20192;-70
2023/04/10 01:52:16;;;;;;;13.45;8.10;;;1.90;88.40;;;;;;5092888;28;20191;-70
2023/04/10 01:54:47;;;;;;;13.05;9.30;;;1.90;88.90;;;;;;5092415;28;20190;-70
2023/04/10 01:57:20;;;;;;;12.43;8.25;;;1.80;89.30;;;;;;5092493;28;20271;-70
2023/04/10 01:59:49;;;;;;;11.45;7.55;;;1.80;90.00;;;;;;5092414;28;20274;-70
2023/04/10 02:02:16;;;;;;;12.45;7.47;;;1.80;90.10;;;;;;5092293;28;20207;-70
2023/04/10 02:04:45;;;;;;;11.30;6.93;;;;;;;;;;5092717;28;20193;-70
2023/04/10 02:07:17;;;;;;;13.32;7.68;;;;;;;;;;5092219;28;20271;-70
2023/04/10 02:09:48;;;;;;;10.32;7.05;;;;;;;;;;5092764;28;20204;-70
2023/04/10 02:12:17;;;;;;;13.75;7.60;;;;;;;;;;5092264;28;20185;-70
2023/04/10 02:14:47;;;;;;;15.77;7.93;;;;;;;;;;5092506;28;20195;-70
2023/04/10 02:17:18;;;;;;;10.38;6.82;;;;;;;;;;5091916;28;20187;-70
2023/04/10 02:19:47;;;;;;;12.68;7.00;;;;;;;;;;5092488;28;20577;-70
2023/04/10 02:22:14;;;;;;;12.80;7.00;;;;;;;;;;5092041;28;20189;-70
2023/04/10 02:24:42;;;;;;;10.70;6.43;;;;;;;;;;5092043;28;20192;-70
2023/04/10 02:27:10;;;;;;;11.20;6.88;;;;;;;;;;5091814;28;20207;-70
2023/04/10 02:29:37;;;;;;;10.07;6.43;;;;;;;;;;5092046;28;20536;-70
2023/04/10 02:32:07;;;;;;;10.50;6.30;;;;;;;;;;5091051;28;20192;-70
2023/04/10 02:34:36;;;;;;;11.32;7.32;;;;;;;;;;5092186;28;20192;-70
2023/04/10 02:37:04;;;;;;;11.82;6.95;;;;;;;;;;5091510;28;20188;-74
2023/04/10 02:39:37;;;;;;;14.25;7.03;;;;;;;;;;5092246;28;20197;-70
2023/04/10 02:42:05;;;;;;;11.98;7.05;;;;;;;;;;5091882;28;20262;-70
2023/04/10 02:44:35;;;;;;;10.55;7.13;;;;;;;;;;5092303;28;20192;-70
2023/04/10 02:47:02;;;;;;;14.43;7.07;;;;;;;;;;5091398;28;20196;-70
2023/04/10 02:49:30;;;;;;;11.10;7.68;;;;;;;;;;5092362;28;20233;-71
2023/04/10 02:51:59;;;;;;;11.50;7.18;;;;;;;;;;5091979;28;20220;-70
2023/04/10 02:54:27;;;;;;;11.85;7.28;;;;;;;;;;5091782;28;20670;-71
2023/04/10 02:57:03;;;;;;;10.50;6.85;;;;;;;;;;5092167;28;20192;-70
2023/04/10 02:59:33;;;;;;;13.75;7.65;;;;;;;;;;5094642;28;20226;-70
2023/04/10 03:02:00;;;;;;;12.13;7.32;;;1.80;90.20;;;;;;5095307;28;20295;-70
2023/04/10 03:04:27;;;;;;;10.68;6.28;;;1.50;90.00;;;;;;5095771;28;20207;-70
2023/04/10 03:06:55;;;;;;;11.90;6.53;;;1.40;87.90;;;;;;5095676;28;20299;-71
2023/04/10 03:09:24;;;;;;;11.45;7.25;;;1.40;87.00;;;;;;5095920;28;20246;-70
2023/04/10 03:11:51;;;;;;;17.38;7.90;;;1.40;86.70;;;;;;5095549;28;20187;-70
2023/04/10 03:14:20;;;;;;;10.30;6.35;;;1.30;86.70;;;;;;5095583;28;20203;-70
2023/04/10 03:16:49;;;;;;;9.90;6.70;;;1.30;87.10;;;;;;5095017;28;20217;-70
2023/04/10 03:19:16;;;;;;;12.15;6.93;;;1.30;87.30;;;;;;5095267;28;20642;-70
2023/04/10 03:21:43;;;;;;;9.55;6.43;;;1.20;87.70;;;;;;5095136;28;20234;-70
2023/04/10 03:24:11;;;;;;;11.55;7.28;;;1.20;87.70;;;;;;5095889;28;20204;-70
2023/04/10 03:26:43;;;;;;;12.50;7.93;;;1.20;86.30;;;;;;5095556;28;20287;-69
2023/04/10 03:29:11;;;;;;;10.82;6.07;;;1.10;85.90;;;;;;5095235;28;20250;-70
2023/04/10 03:31:38;;;;;;;11.63;7.70;;;1.10;86.20;;;;;;5094929;28;20210;-70
2023/04/10 03:34:10;;;;;;;11.80;6.70;;;1.00;87.00;;;;;;5094734;28;20181;-73
2023/04/10 03:36:37;;;;;;;12.77;7.85;;;;;;;;;;5095164;28;20220;-70
2023/04/10 03:39:04;;;;;;;11.07;7.75;;;0.90;88.40;;;;;;5095556;28;20712;-70
2023/04/10 03:41:37;;;;;;;8.98;6.00;;;0.90;89.40;;;;;;5094630;28;20259;-70
2023/04/10 03:44:06;;;;;;;12.05;9.23;;;0.90;88.70;;;;;;5095427;28;20189;-70
2023/04/10 03:46:33;;;;;;;11.73;8.15;;;0.90;88.40;;;;;;5094692;28;20188;-70
2023/04/10 03:49:01;;;;;;;13.35;7.72;;;0.90;89.20;;;;;;5095222;28;20237;-70
2023/04/10 03:51:40;;;;;;;16.00;7.93;;;0.90;89.70;;;;;;5094652;28;20190;-70
2023/04/10 03:54:07;;;;;;;12.45;7.22;;;1.00;89.80;;;;;;5094655;28;20192;-70
2023/04/10 03:56:34;;;;;;;11.30;7.43;;;1.00;90.10;;;;;;5094632;28;20234;-70
2023/04/10 03:59:09;;;;;;;11.55;7.40;;;1.00;90.20;;;;;;5094719;28;20753;-70
2023/04/10 04:01:36;;;;;;;9.93;6.55;;;1.00;90.30;;;;;;5094084;28;20214;-70
2023/04/10 04:04:04;;;;;;;9.65;6.78;;;1.00;90.50;;;;;;5094952;28;20203;-70
2023/04/10 04:06:34;;;;;;;13.50;6.82;;;1.00;90.60;;;;;;5094724;28;20196;-70
2023/04/10 04:09:05;;;;;;;10.57;6.38;;;1.00;90.60;;;;;;5094219;28;20196;-70
2023/04/10 04:11:33;;;;;;;10.48;6.97;;;0.90;90.30;;;;;;5094307;28;20192;-70
2023/04/10 04:14:00;;;;;;;14.27;7.20;;;0.80;90.00;;;;;;5094755;28;20290;-69
2023/04/10 04:16:29;;;;;;;11.10;6.93;;;0.80;89.10;;;;;;5094133;28;20184;-74
2023/04/10 04:18:57;;;;;;;9.38;6.72;;;0.70;88.30;;;;;;5094445;28;20618;-70
2023/04/10 04:21:24;;;;;;;11.02;7.38;;;0.70;88.30;;;;;;5094446;28;20268;-70
2023/04/10 04:23:52;;;;;;;10.60;6.30;;;;;;;;;;5094555;28;20275;-70
2023/04/10 04:26:35;;;;;;;9.65;7.00;;;;;;;;;;5093900;28;20665;-70
2023/04/10 04:29:02;;;;;;;10.02;5.68;;;;;;;;;;5094544;28;20615;-70
2023/04/10 04:31:32;;;;;;;12.38;7.30;;;;;;;;;;5093906;28;20195;-69
2023/04/10 04:34:00;;;;;;;11.13;6.13;;;;;;;;;;5094395;28;20244;-70
2023/04/10 04:36:28;;;;;;;7.68;5.63;;;;;;;;;;5093608;28;20187;-70
2023/04/10 04:38:56;;;;;;;11.10;7.30;;;0.70;88.50;;;;;;5094461;28;20194;-70
2023/04/10 04:41:23;;;;;;;9.38;5.35;;;0.90;90.10;;;;;;5093814;28;20216;-70
2023/04/10 04:43:52;;;;;;;12.15;7.78;;;0.90;90.30;;;;;;5094059;28;20202;-70
2023/04/10 04:46:24;;;;;;;9.82;5.68;;;0.90;90.20;;;;;;5093589;28;20200;-69
2023/04/10 04:48:53;;;;;;;11.57;6.60;;;0.90;89.40;;;;;;5094187;28;20279;-69
2023/04/10 04:51:22;;;;;;;16.67;6.97;;;0.90;88.60;;;;;;5093714;28;20210;-69
2023/04/10 04:53:50;;;;;;;11.68;7.07;;;0.90;87.70;;;;;;5094243;28;20200;-70
2023/04/10 04:56:17;;;;;;;9.80;6.65;;;0.80;87.50;;;;;;5101449;28;20195;-71
2023/04/10 04:58:45;;;;;;;11.70;7.38;;;0.70;87.90;;;;;;5096268;28;20198;-69
2023/04/10 05:01:12;;;;;;;9.80;6.95;;;0.70;87.80;;;;;;5099348;28;20227;-70
2023/04/10 05:03:40;;;;;;;9.40;6.55;;;0.70;87.60;;;;;;5098394;28;20601;-70
2023/04/10 05:06:08;;;;;;;9.07;6.78;;;0.70;87.60;;;;;;5096920;28;20195;-70
2023/04/10 05:08:36;;;;;;;11.15;6.47;;;0.70;87.20;;;;;;5097114;28;20193;-69
2023/04/10 05:11:03;;;;;;;9.25;5.93;;;0.70;87.20;;;;;;5095131;28;20195;-70
2023/04/10 05:13:30;;;;;;;10.40;6.43;;;0.80;87.50;;;;;;5097809;28;20194;-72
2023/04/10 05:15:58;;;;;;;11.70;6.72;;;0.80;88.40;;;;;;5100901;28;20191;-69
2023/04/10 05:18:25;;;;;;;13.68;7.82;;;0.90;89.20;;;;;;5099974;28;20187;-71
2023/04/10 05:20:52;;;;;;;9.65;7.47;;;1.00;88.90;;;;;;5096176;28;20266;-70
2023/04/10 05:23:21;;;;;;;10.10;7.22;;;1.00;89.30;;;;;;5100861;28;20273;-71
2023/04/10 05:25:48;;;;;;;12.93;7.63;;;1.10;90.00;;;;;;5096558;28;20198;-70
2023/04/10 05:28:16;;;;;;;12.48;6.93;;;1.20;90.30;;;;;;5099942;28;20237;-69
2023/04/10 05:30:43;;;;;;;9.70;6.25;;;1.20;90.50;;;;;;5096333;28;20313;-70
2023/04/10 05:33:10;;;;;;;10.70;6.93;;;1.30;90.40;;;;;;5100966;28;20546;-72
2023/04/10 05:35:37;;;;;;;9.00;6.10;;;1.40;90.60;;;;;;5100271;28;20198;-70
2023/04/10 05:38:05;;;;;;;12.35;6.40;;;1.50;90.50;;;;;;5097910;28;20191;-70
2023/04/10 05:40:34;;;;;;;14.18;8.35;;;1.50;90.50;;;;;;5096557;28;20193;-70
2023/04/10 05:43:04;;;;;;;13.20;7.38;;;1.60;90.60;;;;;;5100173;28;20215;-71
2023/04/10 05:45:31;;;;;;;12.40;6.75;;;1.60;90.70;;;;;;5094426;28;20284;-70
2023/04/10 05:47:59;;;;;;;12.45;8.25;;;1.70;91.00;;;;;;5097068;28;20556;-70
2023/04/10 05:50:26;;;;;;;11.85;7.38;;;1.80;91.20;;;;;;5097646;28;20202;-70
2023/04/10 05:52:55;;;;;;;12.05;7.82;;;1.90;91.40;;;;;;5099016;28;20659;-70
2023/04/10 05:55:22;;;;;;;10.18;7.38;;;2.00;91.40;;;;;;5094086;28;20283;-71
2023/04/10 05:57:51;;;;;;;12.93;8.65;;;2.20;91.30;;;;;;5095838;28;20542;-70
2023/04/10 06:00:18;;;;;;;10.73;7.72;;;2.30;90.90;;;;;;5099960;28;20231;-72
2023/04/10 06:02:45;;;;;;;12.73;7.65;;;2.40;90.80;;;;;;5093071;28;20217;-71
2023/04/10 06:05:13;;;;;;;8.82;6.30;;;2.60;91.00;;;;;;5094478;28;20547;-70
2023/04/10 06:07:40;;;;;;;10.05;7.28;;;2.80;90.50;;;;;;5095865;28;20242;-70
2023/04/10 06:10:09;;;;;;;15.57;8.82;;;2.90;90.50;;;;;;5100628;28;20558;-71
2023/04/10 06:12:36;;;;;;;12.50;7.70;;;3.10;90.70;;;;;;5095833;28;20201;-70
2023/04/10 06:15:07;;;;;;;12.50;7.85;;;3.20;90.50;;;;;;5096103;28;20230;-73
2023/04/10 06:17:34;;;;;;;12.77;8.45;;;3.40;90.40;;;;;;5095484;28;20185;-72
2023/04/10 06:20:03;;;;;;;13.57;8.35;;;3.50;88.70;;;;;;5099773;28;20651;-73
2023/04/10 06:22:31;;;;;;;10.98;7.50;;;3.50;88.20;;;;;;5095772;28;20259;-71
2023/04/10 06:24:58;;;;;;;13.95;8.15;;;3.70;88.90;;;;;;5097241;28;20188;-71
2023/04/10 06:27:28;;;;;;;13.90;9.32;;;3.70;87.90;;;;;;5099375;28;20196;-71
2023/04/10 06:29:56;;;;;;;21.05;10.50;;;3.90;88.50;;;;;;5097608;28;20203;-71
2023/04/10 06:32:25;;;;;;;14.63;8.45;;;4.20;88.90;;;;;;5098040;28;20651;-71
2023/04/10 06:34:53;;;;;;;17.05;8.75;;;4.30;88.70;;;;;;5099693;28;20193;-72
2023/04/10 06:37:20;;;;;;;12.48;8.05;;;4.50;87.30;;;;;;5097535;28;20193;-72
2023/04/10 06:39:47;;;;;;;10.00;7.25;;;4.70;87.30;;;;;;5102576;28;20228;-71
2023/04/10 06:42:15;;;;;;;16.13;7.38;;;4.80;86.90;;;;;;5100250;28;20213;-71
2023/04/10 06:44:42;;;;;;;9.40;6.70;;;5.00;86.50;;;;;;5103902;28;20270;-72
2023/04/10 06:47:09;;;;;;;11.65;7.50;;;5.20;86.00;;;;;;5100541;28;20185;-71
2023/04/10 06:49:37;;;;;;;11.95;7.95;;;5.50;86.40;;;;;;5102810;28;20196;-71
2023/04/10 06:52:05;;;;;;;12.00;7.93;;;5.70;86.20;;;;;;5096595;28;20284;-71
2023/04/10 06:54:32;;;;;;;14.13;8.25;;;6.00;86.20;;;;;;5099045;28;20913;-72
2023/04/10 06:56:59;;;;;;;10.95;7.55;;;6.20;85.20;;;;;;5103921;28;20868;-71
2023/04/10 06:59:27;;;;;;;11.00;7.85;;;6.40;82.60;;;;;;5100762;28;20221;-72
2023/04/10 07:01:55;;;;;;;8.07;7.15;;;6.60;81.10;;;;;;5101623;28;20248;-72
2023/04/10 07:04:21;;;;;;;8.27;6.15;;;6.80;80.40;;;;;;5096185;28;20542;-72
2023/04/10 07:06:50;;;;;;;12.77;7.50;;;7.10;79.80;;;;;;5101850;28;20210;-72
2023/04/10 07:09:17;;;;;;;10.05;6.82;;;7.30;78.30;;;;;;5101948;28;20184;-72
2023/04/10 07:11:44;;;;;;;10.07;7.30;;;7.50;77.20;;;;;;5102405;28;20246;-73
2023/04/10 07:14:11;;;;;;;10.27;7.25;;;7.80;76.80;;;;;;5099108;28;20192;-72
2023/04/10 07:16:38;;;;;;;9.68;6.95;;;8.10;76.20;;;;;;5101168;28;20242;-72
2023/04/10 07:19:05;;;;;;;9.52;6.22;;;8.40;74.40;;;;;;5101650;28;20704;-71
2023/04/10 07:21:32;;;;;;;9.52;5.75;;;8.80;72.40;;;;;;5099120;28;20213;-72
2023/04/10 07:24:00;;;;;;;9.30;6.90;;;9.10;69.70;;;;;;5100225;28;20640;-72
2023/04/10 07:26:27;;;;;;;9.02;6.40;;;9.50;69.00;;;;;;5099855;28;20235;-72
2023/04/10 07:28:54;;;;;;;8.05;6.03;;;10.00;67.60;;;;;;5099185;28;20189;-72
2023/04/10 07:31:21;;;;;;;8.35;5.85;;;10.30;63.50;;;;;;5096270;28;20704;-74
2023/04/10 07:33:48;;;;;;;7.00;5.85;;;10.80;61.20;;;;;;5099042;28;20215;-73
2023/04/10 07:36:15;;;;;;;9.10;5.90;;;11.20;59.50;;;;;;5099080;28;20227;-74
2023/04/10 07:38:42;;;;;;;9.88;6.25;;;12.10;56.50;;;;;;5100052;28;20277;-73
2023/04/10 07:41:11;;;;;;;6.95;5.20;;;13.80;52.00;;;;;;5100592;28;20180;-70
2023/04/10 07:43:38;;;;;;;9.60;6.63;;;17.10;46.00;;;;;;5099094;28;20252;-70
2023/04/10 07:46:05;;;;;;;7.77;6.17;;;20.40;37.20;;;;;;5099702;28;20442;-70
2023/04/10 07:48:33;;;;;;;7.33;5.57;;;22.90;32.00;;;;;;5099461;28;20527;-71
2023/04/10 07:51:00;;;;;;;6.97;5.70;;;;;;;;;;5101639;28;20491;-72
2023/04/10 07:53:27;;;;;;;7.33;5.87;;;;;;;;;;5099274;28;20432;-73
2023/04/10 07:55:54;;;;;;;6.03;5.43;;;25.20;29.30;;;;;;5100308;28;21374;-73
2023/04/10 07:58:23;;;;;;;7.00;5.50;;;30.70;21.90;;;;;;5097743;28;20435;-74
2023/04/10 08:00:50;;;;;;;7.13;5.90;;;31.90;20.70;;;;;;5096280;28;20466;-74
2023/04/10 08:03:17;;;;;;;5.20;4.70;;;33.10;19.00;;;;;;5102169;28;20459;-75
2023/04/10 08:05:44;;;;;;;7.20;5.87;;;34.30;18.30;;;;;;5097379;28;20462;-75
2023/04/10 08:08:11;;;;;;;6.57;5.83;;;35.50;16.90;;;;;;5099216;28;20431;-78
2023/04/10 08:10:39;;;;;;;6.93;4.50;;;36.40;16.10;;;;;;5098320;28;20955;-76
2023/04/10 08:13:06;;;;;;;7.60;5.23;;;37.10;15.40;;;;;;5102450;28;20550;-75
2023/04/10 08:15:35;;;;;;;5.13;4.53;;;37.90;13.80;;;;;;5099864;28;20969;-75
2023/04/10 08:18:02;;;;;;;6.50;4.93;;;38.60;12.90;;;;;;5097680;28;20426;-75
2023/04/10 08:20:29;;;;;;;6.43;5.00;;;39.40;13.20;;;;;;5100913;28;20464;-76
2023/04/10 08:22:56;;;;;;;5.13;4.40;;;39.80;12.10;;;;;;5094602;28;20802;-76
2023/04/10 08:25:23;;;;;;;5.37;4.83;;;40.00;11.60;;;;;;5099003;28;20427;-74
2023/04/10 08:27:50;;;;;;;5.43;4.93;;;40.10;11.60;;;;;;5095528;28;20491;-74
2023/04/10 08:30:17;;;;;;;5.77;5.17;;;40.60;11.80;;;;;;5088282;28;20474;-75
2023/04/10 08:32:46;;;;;;;4.50;4.10;;;41.20;11.40;;;;;;5089662;28;20479;-74
2023/04/10 08:35:13;;;;;;;5.20;4.70;;;41.70;11.50;;;;;;5096561;28;20445;-75
2023/04/10 08:37:40;;;;;;;6.27;4.70;;;42.30;10.90;;;;;;5096804;28;20457;-77
2023/04/10 08:40:09;;;;;;;5.57;4.50;;;42.70;9.70;;;;;;5095447;28;20522;-75
2023/04/10 08:42:37;;;;;;;4.80;4.17;;;43.20;9.50;;;;;;5097017;28;20486;-75
2023/04/10 08:45:04;;;;;;;4.50;4.10;;;43.50;9.60;;;;;;5097873;28;20517;-75
2023/04/10 08:47:36;;;;;;;5.13;4.63;;;43.70;9.50;;;;;;5098970;28;20496;-76
2023/04/10 08:50:10;;;;;;;4.13;3.73;;;44.10;8.90;;;;;;5097974;28;20431;-76
2023/04/10 08:52:43;;;;;;;4.10;3.70;;;44.40;8.90;;;;;;5095916;28;20522;-78
2023/04/10 08:55:14;;;;;;;4.13;3.60;;;;;;;;;;5096976;28;20437;-75
2023/04/10 08:57:42;;;;;;;3.90;3.50;;;44.60;8.10;;;;;;5096352;28;20869;-75
2023/04/10 09:00:10;;;;;;;3.90;2.70;;;45.10;7.60;;;;;;5100158;28;20541;-75
2023/04/10 09:02:40;;;;;;;3.43;2.50;;;45.10;6.30;;;;;;5093360;28;20520;-75
2023/04/10 09:05:11;;;;;;;3.10;2.30;;;44.90;5.40;;;;;;5098336;28;20442;-74
2023/04/10 09:07:39;;;;;;;3.30;2.60;;;43.30;5.30;;;;;;5099466;28;20433;-75
2023/04/10 09:10:07;;;;;;;3.13;2.43;;;42.50;6.00;;;;;;5100412;28;20439;-75
2023/04/10 09:12:44;;;;;;;2.87;2.00;;;42.60;6.50;;;;;;5097220;28;20633;-75
2023/04/10 09:15:14;;;;;;;3.97;2.30;;;42.80;6.80;;;;;;5097556;28;20855;-76
2023/04/10 09:17:56;;;;;;;3.23;2.50;;;42.90;5.00;;;;;;5096652;28;20440;-75
2023/04/10 09:20:26;;;;;;;2.77;1.80;;;42.30;5.70;;;;;;5095673;28;20945;-76
2023/04/10 09:22:53;;;;;;;2.80;2.10;;;41.90;5.90;;;;;;5097534;28;20859;-75
2023/04/10 09:25:32;;;;;;;2.87;1.90;;;42.10;6.80;;;;;;5098697;28;20501;-75
2023/04/10 09:28:04;;;;;;;2.97;2.20;;;42.20;5.70;;;;;;5092943;28;20539;-75
2023/04/10 09:30:38;;;;;;;3.00;2.40;;;42.40;6.10;;;;;;5096532;28;20439;-76
2023/04/10 09:33:21;;;;;;;3.90;2.97;;;42.80;5.70;;;;;;5101916;28;20868;-75
2023/04/10 09:35:50;;;;;;;3.70;2.57;;;43.20;6.20;;;;;;5099748;28;20453;-75
2023/04/10 09:38:19;;;;;;;3.60;2.63;;;43.40;5.60;;;;;;5096511;28;20492;-75
2023/04/10 09:40:47;;;;;;;3.00;2.10;;;43.50;5.70;;;;;;5098054;28;20428;-77
2023/04/10 09:43:25;;;;;;;2.70;2.07;;;43.90;6.40;;;;;;5103499;28;20474;-76
2023/04/10 09:45:53;;;;;;;3.70;3.00;;;44.90;6.70;;;;;;5095626;28;20446;-76
2023/04/10 09:48:21;;;;;;;3.53;2.73;;;45.50;5.60;;;;;;5100080;28;20986;-75
2023/04/10 09:50:50;;;;;;;3.00;2.60;;;46.00;5.40;;;;;;5096527;28;21823;-75
2023/04/10 09:53:19;;;;;;;3.37;2.73;;;46.10;5.20;;;;;;5100847;28;20510;-75
2023/04/10 09:55:48;;;;;;;3.80;2.30;;;46.20;5.60;;;;;;5096478;28;20457;-75
2023/04/10 09:58:16;;;;;;;3.20;2.60;;;46.50;5.30;;;;;;5097451;28;20478;-76
2023/04/10 10:00:44;;;;;;;2.70;2.27;;;46.20;4.70;;;;;;5097293;28;20469;-76
2023/04/10 10:03:12;;;;;;;3.17;2.57;;;46.00;5.10;;;;;;5098745;28;20480;-76
2023/04/10 10:05:41;;;;;;;3.43;2.60;;;46.00;5.00;;;;;;5098456;28;20463;-76
2023/04/10 10:08:12;;;;;;;2.77;2.27;;;46.20;5.20;;;;;;5099836;28;20891;-76
2023/04/10 10:10:45;;;;;;;2.80;2.00;;;46.10;4.90;;;;;;5095364;28;20439;-76
2023/04/10 10:13:17;;;;;;;10.23;2.73;;;45.30;4.40;;;;;;5096784;28;20426;-76
2023/04/10 10:15:50;;;;;;;3.07;2.57;;;45.10;4.40;;;;;;5099768;28;20940;-76
2023/04/10 10:18:23;;;;;;;2.80;2.33;;;45.50;4.90;;;;;;5095669;28;20846;-76
2023/04/10 10:20:51;;;;;;;3.10;2.43;;;45.60;4.90;;;;;;5098872;28;20932;-75
2023/04/10 10:23:22;;;;;;;2.70;1.97;;;46.20;5.50;;;;;;5099314;28;20483;-76
2023/04/10 10:25:50;;;;;;;2.67;1.90;;;46.50;4.30;;;;;;5093521;28;20431;-76
2023/04/10 10:28:19;;;;;;;3.03;2.00;;;46.60;4.40;;;;;;5100394;28;20763;-76
2023/04/10 10:30:47;;;;;;;3.43;2.10;;;46.70;4.40;;;;;;5096851;28;20466;-76
2023/04/10 10:33:15;;;;;;;2.80;2.10;;;46.80;4.60;;;;;;5100304;28;20538;-76
2023/04/10 10:35:42;;;;;;;2.97;2.30;;;47.30;4.70;;;;;;5098348;28;20430;-76
2023/04/10 10:38:10;;;;;;;2.63;1.73;;;47.70;4.30;;;;;;5095727;28;20495;-76
2023/04/10 10:40:49;;;;;;;4.07;2.30;;;47.80;3.70;;;;;;5094830;28;20994;-77
2023/04/10 10:43:24;;;;;;;2.50;1.80;;;47.00;3.50;;;;;;5095771;28;20605;-76
2023/04/10 10:45:59;;;;;;;2.50;1.63;;;46.50;3.70;;;;;;5094399;28;20432;-76
2023/04/10 10:48:30;;;;;;;2.83;1.93;;;45.80;3.80;;;;;;5093789;28;20461;-81
2023/04/10 10:51:00;;;;;;;4.70;2.87;;;45.50;3.70;;;;;;5101239;28;20845;-86
2023/04/10 10:53:39;;;;;;;3.57;2.10;;;45.60;3.70;;;;;;5098511;28;20436;-80
2023/04/10 10:56:40;;;;;;;4.90;2.30;;;45.70;4.60;;;;;;5098225;28;20440;-81
2023/04/10 10:59:08;;;;;;;4.43;2.40;;;46.10;4.50;;;;;;5096601;28;20817;-80
2023/04/10 11:01:36;;;;;;;2.80;2.07;;;46.30;5.10;;;;;;5096718;28;20430;-79
2023/04/10 11:04:43;;;;;;;3.50;2.13;;;46.20;4.40;;;;;;5093847;28;20569;-68
2023/04/10 11:07:10;;;;;;;3.50;2.60;;;45.80;4.70;;;;;;5095843;28;20480;-69
2023/04/10 11:09:48;;;;;;;2.80;1.80;;;45.60;4.20;;;;;;5100052;28;20459;-67
2023/04/10 11:12:19;;;;;;;2.80;1.90;;;45.40;4.00;;;;;;5090309;28;20510;-76
2023/04/10 11:14:58;;;;;;;3.20;2.30;;;44.80;4.20;;;;;;5092715;28;20444;-75
2023/04/10 11:17:53;;;;;;;3.23;2.37;;;44.00;4.20;;;;;;5098346;28;20439;-76
2023/04/10 11:20:24;;;;;;;2.33;1.53;;;;;;;;;;5057111;28;20478;-75
2023/04/10 11:23:08;;;;;;;2.60;1.70;;;;;;;;;;5100923;28;20467;-75
2023/04/10 11:25:47;;;;;;;3.17;1.70;;;;;;;;;;5102397;28;20430;-76
2023/04/10 11:28:30;;;;;;;3.17;2.03;;;;;;;;;;5099253;28;20916;-75
2023/04/10 11:31:14;;;;;;;3.27;1.90;;;;;;;;;;5095064;28;20921;-80
2023/04/10 11:33:41;;;;;;;2.53;1.57;;;;;;;;;;5097641;28;20438;-76
2023/04/10 11:36:09;;;;;;;2.87;1.77;;;;;;;;;;5097410;28;20803;-76
2023/04/10 11:38:36;;;;;;;3.30;2.07;;;;;;;;;;5101540;28;20447;-76
2023/04/10 11:41:05;;;;;;;3.00;2.00;;;;;;;;;;5096555;28;20430;-75
2023/04/10 11:43:34;;;;;;;3.10;2.03;;;;;;;;;;5096853;28;20478;-76
2023/04/10 11:46:04;;;;;;;3.00;1.97;;;;;;;;;;5098871;28;20500;-76
2023/04/10 11:48:32;;;;;;;2.40;1.50;;;;;;;;;;5101894;27;20949;-76
2023/04/10 11:51:00;;;;;;;3.20;2.10;;;;;;;;;;5098618;28;20491;-75
2023/04/10 11:53:28;;;;;;;3.17;2.27;;;;;;;;;;5098032;28;20439;-76
2023/04/10 11:55:56;;;;;;;3.10;2.03;;;;;;;;;;5102570;28;20526;-75
2023/04/10 11:58:25;;;;;;;2.97;1.90;;;;;;;;;;5097211;28;20518;-75
2023/04/10 12:01:02;;;;;;;3.30;2.10;;;;;;;;;;5100380;28;20426;-74
2023/04/10 12:03:39;;;;;;;2.67;1.93;;;;;;;;;;5099054;28;20474;-74
2023/04/10 12:06:09;;;;;;;2.93;1.77;;;;;;;;;;5097546;28;20439;-76
2023/04/10 12:08:37;;;;;;;2.77;1.83;;;;;;;;;;5101474;28;20430;-75
2023/04/10 12:11:05;;;;;;;3.30;2.20;;;;;;;;;;5097061;28;20435;-76
2023/04/10 12:13:32;;;;;;;3.20;2.23;;;;;;;;;;5095342;28;20514;-75
2023/04/10 12:16:01;;;;;;;3.23;1.47;;;;;;;;;;5100661;28;20445;-76
2023/04/10 12:18:29;;;;;;;3.00;2.20;;;;;;;;;;5100899;28;20435;-75
2023/04/10 12:20:58;;;;;;;3.90;2.47;;;;;;;;;;5101148;28;20859;-76
2023/04/10 12:23:26;;;;;;;3.90;2.10;;;;;;;;;;5100947;28;21006;-76
2023/04/10 12:25:54;;;;;;;3.20;1.67;;;;;;;;;;5098158;28;20526;-75
2023/04/10 12:28:22;;;;;;;2.70;1.73;;;;;;;;;;5098199;28;20924;-76
2023/04/10 12:30:51;;;;;;;2.80;1.87;;;;;;;;;;5101788;28;20521;-74
2023/04/10 12:33:22;;;;;;;3.00;2.30;;;43.30;5.20;;;;;;5094145;28;20430;-78
2023/04/10 12:35:50;;;;;;;4.13;2.40;;;26.10;16.00;;;;;;5099810;28;20489;-72
2023/04/10 12:38:35;;;;;;;4.70;2.70;;;25.40;16.60;;;;;;5100534;28;20438;-73
2023/04/10 12:41:03;;;;;;;3.63;2.40;;;25.20;17.20;;;;;;5095147;28;20439;-76
2023/04/10 12:43:38;;;;;;;2.80;1.90;;;25.00;17.80;;;;;;5101662;28;20478;-74
2023/04/10 12:46:07;;;;;;;4.67;1.97;;;24.90;18.50;;;;;;5098576;28;20492;-73
2023/04/10 12:48:34;;;;;;;3.37;2.10;;;24.60;17.20;;;;;;5099237;28;20485;-72
2023/04/10 12:51:02;;;;;;;4.90;2.73;;;24.30;17.90;;;;;;5101853;28;20831;-74
2023/04/10 12:53:31;;;;;;;3.67;2.57;;;24.20;18.40;;;;;;5094956;28;20853;-73
2023/04/10 12:56:03;;;;;;;3.00;2.10;;;23.90;18.00;;;;;;5099968;28;20974;-73
2023/04/10 12:58:31;;;;;;;4.70;2.60;;;23.80;19.10;;;;;;5101804;28;20513;-73
2023/04/10 13:01:02;;;;;;;3.43;2.27;;;23.70;18.40;;;;;;5094554;28;20427;-72
2023/04/10 13:03:29;;;;;;;3.37;2.40;;;23.60;19.10;;;;;;5100074;28;20478;-73
2023/04/10 13:05:56;;;;;;;3.07;1.80;;;23.50;18.60;;;;;;5101504;28;20442;-72
2023/04/10 13:08:23;;;;;;;3.47;2.03;;;23.20;18.20;;;;;;5101710;28;20443;-73
2023/04/10 13:10:56;;;;;;;3.53;3.07;;;23.10;19.00;;;;;;5099105;28;20971;-72
2023/04/10 13:13:23;;;;;;;2.87;2.00;;;23.10;19.80;;;;;;5099136;28;20823;-73
2023/04/10 13:15:50;;;;;;;3.77;2.70;;;23.00;18.50;;;;;;5097079;28;20442;-74
2023/04/10 13:18:17;;;;;;;3.10;2.50;;;22.80;19.30;;;;;;5094367;28;20516;-72
2023/04/10 13:20:44;;;;;;;3.30;2.50;;;22.60;19.10;;;;;;5100328;28;20851;-72
2023/04/10 13:23:11;;;;;;;3.27;1.90;;;22.40;19.30;;;;;;5097471;28;20443;-72